Time;durP1;ratioP1;P1;durP2;ratioP2;P2;SDS_P1;SDS_P2;PMS_P1;PMS_P2;Temp;Humidity;BMP_temperature;BMP_pressure;BME280_temperature;BME280_humidity;BME280_pressure;Samples;Min_cycle;Max_cycle;Signal;HPM_P1;HPM_P2
2023/10/30 00:01:12;;;;;;;;;;;;;;;17.75;46.91;95753.72;4219437;28;5898;-67
2023/10/30 00:03:16;;;;;;;;;;;;;;;17.72;47.20;95743.56;4219302;28;5683;-67
2023/10/30 00:05:19;;;;;;;;;;;;;;;17.69;47.04;95749.44;4218959;28;5675;-67
2023/10/30 00:07:25;;;;;;;;;;;;;;;17.68;47.18;95757.72;4219104;28;5741;-67
2023/10/30 00:09:28;;;;;;;;;;;;;;;17.68;47.32;95763.06;4215404;28;5693;-67
2023/10/30 00:11:29;;;;;;;;;;;;;;;17.72;47.17;95759.59;4214302;28;5655;-67
2023/10/30 00:13:32;;;;;;;;;;;;;;;17.74;47.09;95762.00;4219243;28;5671;-67
2023/10/30 00:15:35;;;;;;;;;;;;;;;17.68;47.08;95763.84;4218855;28;5671;-67
2023/10/30 00:17:40;;;;;;;;;;;;;;;17.65;47.22;95766.22;4219057;28;5641;-67
2023/10/30 00:19:43;;;;;;;;;;;;;;;17.65;47.19;95759.00;4213571;28;5696;-67
2023/10/30 00:21:46;;;;;;;;;;;;;;;17.62;47.36;95769.44;4209798;28;5818;-68
2023/10/30 00:23:49;;;;;;;;;;;;;;;17.62;47.36;95764.88;4211432;28;5786;-67
2023/10/30 00:25:54;;;;;;;;;;;;;;;17.66;47.48;95765.16;4209051;28;5689;-67
2023/10/30 00:28:00;;;;;;;;;;;;;;;17.68;47.26;95766.53;4224503;28;5679;-67
2023/10/30 00:30:02;;;;;;;;;;;;;;;17.71;47.38;95762.56;4216134;28;5663;-68
2023/10/30 00:32:05;;;;;;;;;;;;;;;17.73;47.44;95752.41;4208321;28;5850;-68
2023/10/30 00:34:12;;;;;;;;;;;;;;;17.74;47.35;95756.66;4201689;28;5635;-68
2023/10/30 00:36:15;;;;;;;;;;;;;;;17.76;47.52;95754.53;4218073;28;5696;-68
2023/10/30 00:38:17;;;;;;;;;;;;;;;17.76;47.54;95754.53;4218774;28;5683;-68
2023/10/30 00:40:20;;;;;;;;;;;;;;;17.77;47.60;95756.13;4217161;28;5583;-68
2023/10/30 00:42:26;;;;;;;;;;;;;;;17.79;47.47;95759.38;4218222;28;5657;-68
2023/10/30 00:44:28;;;;;;;;;;;;;;;17.80;47.63;95757.50;4206619;28;7361;-68
2023/10/30 00:46:31;;;;;;;;;;;;;;;17.80;47.65;95755.63;4214205;28;5671;-68
2023/10/30 00:48:34;;;;;;;;;;;;;;;17.80;47.46;95757.50;4218148;28;5630;-68
2023/10/30 00:50:38;;;;;;;;;;;;;;;17.72;47.68;95748.91;4218576;28;5688;-68
2023/10/30 00:52:42;;;;;;;;;;;;;;;17.71;47.73;95743.84;4218615;28;5898;-68
2023/10/30 00:54:46;;;;;;;;;;;;;;;17.71;47.68;95752.66;4218026;28;6376;-68
2023/10/30 00:56:49;;;;;;;;;;;;;;;17.74;47.74;95754.00;4218469;28;5675;-67
2023/10/30 00:58:52;;;;;;;;;;;;;;;17.73;47.58;95739.81;4218448;28;5920;-68
2023/10/30 01:00:55;;;;;;;;;;;;;;;17.72;47.59;95737.44;4218294;28;6463;-68
2023/10/30 01:02:58;;;;;;;;;;;;;;;17.67;47.52;95748.09;4218252;28;5656;-68
2023/10/30 01:05:01;;;;;;;;;;;;;;;17.66;47.63;95746.44;4218510;28;5675;-68
2023/10/30 01:07:05;;;;;;;;;;;;;;;17.67;47.64;95761.44;4209754;28;5671;-67
2023/10/30 01:09:07;;;;;;;;;;;;;;;17.68;47.80;95757.72;4218403;28;5667;-68
2023/10/30 01:11:10;;;;;;;;;;;;;;;17.69;47.69;95754.00;4217676;28;5659;-68
2023/10/30 01:13:13;;;;;;;;;;;;;;;17.71;47.76;95746.50;4218370;28;5630;-68
2023/10/30 01:15:17;;;;;;;;;;;;;;;17.66;47.41;95739.22;4217970;28;5821;-68
2023/10/30 01:17:19;;;;;;;;;;;;;;;17.59;47.72;95748.59;4217877;28;6400;-68
2023/10/30 01:19:22;;;;;;;;;;;;;;;17.60;47.68;95742.16;4217669;28;5734;-68
2023/10/30 01:21:25;;;;;;;;;;;;;;;17.62;47.69;95734.69;4218366;28;5634;-68
2023/10/30 01:23:29;;;;;;;;;;;;;;;17.66;47.64;95743.78;4218072;28;5675;-68
2023/10/30 01:25:32;;;;;;;;;;;;;;;17.66;47.65;95738.44;4217635;28;5836;-68
2023/10/30 01:27:35;;;;;;;;;;;;;;;17.68;47.75;95747.03;4217843;28;5072;-68
2023/10/30 01:29:38;;;;;;;;;;;;;;;17.67;47.73;95737.41;4217879;28;5667;-68
2023/10/30 01:31:40;;;;;;;;;;;;;;;17.67;47.51;95730.19;4218019;28;5655;-68
2023/10/30 01:33:43;;;;;;;;;;;;;;;17.64;47.50;95724.53;4217916;28;5692;-67
2023/10/30 01:35:47;;;;;;;;;;;;;;;17.62;47.74;95718.66;4216450;28;5724;-68
2023/10/30 01:37:49;;;;;;;;;;;;;;;17.63;47.62;95714.91;4217840;28;5768;-68
2023/10/30 01:39:54;;;;;;;;;;;;;;;17.65;47.67;95723.47;4217465;28;6782;-68
2023/10/30 01:41:57;;;;;;;;;;;;;;;17.64;47.81;95724.53;4217830;28;5768;-67
2023/10/30 01:44:00;;;;;;;;;;;;;;;17.64;47.58;95719.19;4217651;28;5750;-67
2023/10/30 01:46:05;;;;;;;;;;;;;;;17.64;47.99;95719.19;4217492;28;5739;-68
2023/10/30 01:48:08;;;;;;;;;;;;;;;17.65;47.64;95726.94;4201014;28;5834;-67
2023/10/30 01:50:14;;;;;;;;;;;;;;;17.65;47.75;95720.78;4210216;28;5659;-67
2023/10/30 01:52:18;;;;;;;;;;;;;;;17.65;47.73;95712.78;4215843;28;5675;-67
2023/10/30 01:54:21;;;;;;;;;;;;;;;17.63;47.85;95712.25;4211009;28;5824;-67
2023/10/30 01:56:26;;;;;;;;;;;;;;;17.62;47.58;95710.63;4217578;28;5763;-68
2023/10/30 01:58:30;;;;;;;;;;;;;;;17.63;47.79;95706.91;4217512;28;5829;-67
2023/10/30 02:00:33;;;;;;;;;;;;;;;17.62;47.70;95695.41;4217686;28;5810;-68
2023/10/30 02:02:38;;;;;;;;;;;;;;;17.63;47.76;95693.53;4217452;28;5793;-68
2023/10/30 02:04:41;;;;;;;;;;;;;;;17.62;47.61;95695.41;4217479;28;5659;-68
2023/10/30 02:06:44;;;;;;;;;;;;;;;17.63;47.63;95701.56;4215853;28;5730;-68
2023/10/30 02:08:48;;;;;;;;;;;;;;;17.61;47.56;95698.34;4216679;28;5659;-68
2023/10/30 02:10:51;;;;;;;;;;;;;;;17.60;47.62;95702.09;4216749;28;5294;-67
2023/10/30 02:12:55;;;;;;;;;;;;;;;17.60;47.64;95702.09;4217239;28;8498;-67
2023/10/30 02:14:58;;;;;;;;;;;;;;;17.60;47.57;95702.88;4217436;28;5659;-68
2023/10/30 02:17:00;;;;;;;;;;;;;;;17.60;47.53;95692.19;4216829;28;7144;-67
2023/10/30 02:19:08;;;;;;;;;;;;;;;17.60;47.55;95696.75;4216660;28;5687;-68
2023/10/30 02:21:12;;;;;;;;;;;;;;;17.62;47.72;95697.28;4217613;28;5671;-68
2023/10/30 02:23:15;;;;;;;;;;;;;;;17.61;47.55;95696.47;4216615;28;5691;-67
2023/10/30 02:25:20;;;;;;;;;;;;;;;17.60;47.71;95699.41;4217067;28;5672;-66
2023/10/30 02:27:23;;;;;;;;;;;;;;;17.57;47.38;95698.09;4216547;28;5889;-67
2023/10/30 02:29:25;;;;;;;;;;;;;;;17.57;47.26;95694.59;4217364;28;5890;-67
2023/10/30 02:31:30;;;;;;;;;;;;;;;17.57;47.32;95697.28;4216706;28;5659;-68
2023/10/30 02:33:33;;;;;;;;;;;;;;;17.56;47.48;95695.69;4216573;28;5671;-68
2023/10/30 02:35:36;;;;;;;;;;;;;;;17.53;47.35;95688.97;4216742;28;5704;-68
2023/10/30 02:37:40;;;;;;;;;;;;;;;17.52;47.14;95687.38;4217372;28;6032;-67
2023/10/30 02:39:43;;;;;;;;;;;;;;;17.53;47.34;95690.84;4209854;28;7018;-67
2023/10/30 02:41:47;;;;;;;;;;;;;;;17.52;47.31;95694.56;4201274;28;5818;-67
2023/10/30 02:43:50;;;;;;;;;;;;;;;17.52;47.29;95694.56;4213434;28;6000;-67
2023/10/30 02:45:53;;;;;;;;;;;;;;;17.51;47.21;95696.44;4207757;28;7722;-67
2023/10/30 02:47:56;;;;;;;;;;;;;;;17.48;47.03;95694.31;4206179;28;6553;-67
2023/10/30 02:50:00;;;;;;;;;;;;;;;17.45;47.02;95695.66;4204906;28;5624;-67
2023/10/30 02:52:04;;;;;;;;;;;;;;;17.46;47.13;95691.91;4206664;28;5696;-67
2023/10/30 02:54:07;;;;;;;;;;;;;;;17.46;46.65;95691.09;4208965;28;5802;-67
2023/10/30 02:56:10;;;;;;;;;;;;;;;17.38;46.49;95689.72;4211530;28;5654;-67
2023/10/30 02:58:14;;;;;;;;;;;;;;;17.33;46.65;95681.72;4206270;28;5746;-66
2023/10/30 03:00:18;;;;;;;;;;;;;;;17.35;46.75;95690.28;4209080;28;5747;-67
2023/10/30 03:02:21;;;;;;;;;;;;;;;17.36;46.84;95675.84;4207371;28;6502;-68
2023/10/30 03:04:24;;;;;;;;;;;;;;;17.37;46.66;95671.31;4212285;28;5922;-68
2023/10/30 03:06:27;;;;;;;;;;;;;;;17.34;46.31;95664.63;4219875;28;6367;-68
2023/10/30 03:08:30;;;;;;;;;;;;;;;17.31;46.39;95670.47;4219257;28;5750;-68
2023/10/30 03:10:33;;;;;;;;;;;;;;;17.32;46.68;95674.75;4212485;28;5751;-66
2023/10/30 03:12:36;;;;;;;;;;;;;;;17.33;46.50;95679.03;4212510;28;5671;-67
2023/10/30 03:14:41;;;;;;;;;;;;;;;17.36;46.57;95675.84;4220341;28;5734;-67
2023/10/30 03:16:44;;;;;;;;;;;;;;;17.33;46.38;95673.72;4212373;28;5792;-67
2023/10/30 03:18:46;;;;;;;;;;;;;;;17.27;46.21;95677.41;4212818;28;5836;-68
2023/10/30 03:20:49;;;;;;;;;;;;;;;17.25;46.32;95681.41;4212568;28;5752;-68
2023/10/30 03:22:51;;;;;;;;;;;;;;;17.25;46.39;95674.19;4211588;28;5811;-68
2023/10/30 03:24:54;;;;;;;;;;;;;;;17.25;46.39;95679.53;4210089;28;5772;-68
2023/10/30 03:26:57;;;;;;;;;;;;;;;17.25;46.46;95671.53;4209363;28;5704;-67
2023/10/30 03:28:59;;;;;;;;;;;;;;;17.27;46.45;95681.94;4204770;28;5792;-67
2023/10/30 03:31:07;;;;;;;;;;;;;;;17.26;46.38;95678.47;4207009;28;6562;-68
2023/10/30 03:33:10;;;;;;;;;;;;;;;17.25;46.47;95678.75;4209863;28;5496;-67
2023/10/30 03:35:13;;;;;;;;;;;;;;;17.25;46.54;95678.75;4211631;28;7682;-67
2023/10/30 03:37:16;;;;;;;;;;;;;;;17.24;46.60;95677.13;4208154;28;5730;-67
2023/10/30 03:39:20;;;;;;;;;;;;;;;17.25;46.58;95674.19;4208901;28;5774;-67
2023/10/30 03:41:23;;;;;;;;;;;;;;;17.27;46.54;95680.09;4211238;28;5086;-67
2023/10/30 03:43:26;;;;;;;;;;;;;;;17.28;46.29;95683.56;4211524;28;5739;-67
2023/10/30 03:45:29;;;;;;;;;;;;;;;17.28;46.48;95680.88;4215270;28;6326;-67
2023/10/30 03:47:33;;;;;;;;;;;;;;;17.29;46.68;95680.63;4215611;28;5798;-67
2023/10/30 03:49:36;;;;;;;;;;;;;;;17.30;46.43;95686.75;4211931;28;5837;-66
2023/10/30 03:51:39;;;;;;;;;;;;;;;17.28;46.46;95681.69;4208336;28;5779;-66
2023/10/30 03:53:42;;;;;;;;;;;;;;;17.28;46.49;95681.69;4208071;28;5707;-67
2023/10/30 03:55:45;;;;;;;;;;;;;;;17.28;46.55;95679.00;4218668;28;6462;-67
2023/10/30 03:57:48;;;;;;;;;;;;;;;17.24;46.22;95677.94;4218969;28;5722;-67
2023/10/30 03:59:51;;;;;;;;;;;;;;;17.21;46.31;95682.97;4218424;28;5646;-67
2023/10/30 04:01:54;;;;;;;;;;;;;;;17.20;46.42;95690.19;4219282;28;5900;-68
2023/10/30 04:03:58;;;;;;;;;;;;;;;17.17;45.88;95694.19;4218808;28;5675;-66
2023/10/30 04:06:02;;;;;;;;;;;;;;;17.10;46.03;95684.81;4218771;28;5659;-67
2023/10/30 04:08:05;;;;;;;;;;;;;;;17.06;46.01;95681.06;4219107;28;5659;-67
2023/10/30 04:10:09;;;;;;;;;;;;;;;17.02;46.06;95677.31;4218831;28;5676;-68
2023/10/30 04:12:12;;;;;;;;;;;;;;;16.99;46.19;95680.50;4218824;28;5808;-68
2023/10/30 04:14:15;;;;;;;;;;;;;;;16.93;46.06;95679.69;4218696;28;5683;-68
2023/10/30 04:16:20;;;;;;;;;;;;;;;16.88;46.10;95675.13;4217774;28;6404;-67
2023/10/30 04:18:23;;;;;;;;;;;;;;;16.88;46.15;95663.66;4218668;28;5893;-67
2023/10/30 04:20:30;;;;;;;;;;;;;;;16.88;46.04;95664.44;4218720;28;5748;-68
2023/10/30 04:22:33;;;;;;;;;;;;;;;16.86;46.23;95665.75;4219194;28;5660;-68
2023/10/30 04:24:35;;;;;;;;;;;;;;;16.83;46.18;95667.09;4218947;28;5651;-68
2023/10/30 04:26:39;;;;;;;;;;;;;;;16.79;46.25;95668.66;4218998;28;5880;-67
2023/10/30 04:28:42;;;;;;;;;;;;;;;16.74;46.33;95657.94;4218318;28;5659;-67
2023/10/30 04:30:44;;;;;;;;;;;;;;;16.74;46.23;95665.16;4218865;28;5667;-67
2023/10/30 04:32:47;;;;;;;;;;;;;;;16.71;46.54;95674.50;4218836;28;5634;-68
2023/10/30 04:34:49;;;;;;;;;;;;;;;16.70;46.57;95666.75;4218308;28;5925;-68
2023/10/30 04:36:54;;;;;;;;;;;;;;;16.71;46.41;95668.34;4218486;28;5753;-68
2023/10/30 04:38:57;;;;;;;;;;;;;;;16.71;46.61;95657.69;4218674;28;5664;-68
2023/10/30 04:41:04;;;;;;;;;;;;;;;16.72;46.43;95649.41;4218340;28;5675;-68
2023/10/30 04:43:07;;;;;;;;;;;;;;;16.72;46.43;95644.06;4202414;28;6373;-68
2023/10/30 04:45:09;;;;;;;;;;;;;;;16.74;46.42;95647.28;4218234;28;6866;-68
2023/10/30 04:47:13;;;;;;;;;;;;;;;16.81;46.57;95655.06;4218677;28;5694;-68
2023/10/30 04:49:16;;;;;;;;;;;;;;;16.84;46.45;95652.66;4218404;28;5675;-68
2023/10/30 04:51:19;;;;;;;;;;;;;;;16.87;46.35;95649.50;4217914;28;5671;-68
2023/10/30 04:53:23;;;;;;;;;;;;;;;16.88;46.28;95648.44;4216211;28;5679;-66
2023/10/30 04:55:27;;;;;;;;;;;;;;;16.89;46.32;95649.25;4206680;28;5735;-68
2023/10/30 04:57:30;;;;;;;;;;;;;;;16.93;46.29;95649.50;4212082;28;5663;-68
2023/10/30 04:59:33;;;;;;;;;;;;;;;16.94;46.23;95641.25;4216847;28;5671;-68
2023/10/30 05:01:36;;;;;;;;;;;;;;;16.95;46.32;95639.38;4209968;28;5675;-68
2023/10/30 05:03:39;;;;;;;;;;;;;;;16.96;46.34;95635.63;4217822;28;5686;-67
2023/10/30 05:05:42;;;;;;;;;;;;;;;16.97;46.22;95637.22;4218345;28;5675;-68
2023/10/30 05:07:45;;;;;;;;;;;;;;;16.98;46.38;95636.16;4218174;28;5778;-68
2023/10/30 05:09:51;;;;;;;;;;;;;;;16.98;46.32;95636.16;4217983;28;5765;-68
2023/10/30 05:11:55;;;;;;;;;;;;;;;16.98;46.13;95636.16;4218248;28;6506;-68
2023/10/30 05:13:58;;;;;;;;;;;;;;;16.98;46.31;95636.16;4218106;28;5870;-68
2023/10/30 05:16:01;;;;;;;;;;;;;;;16.99;46.35;95629.75;4218025;28;5845;-68
2023/10/30 05:18:04;;;;;;;;;;;;;;;17.00;46.42;95631.41;4218035;28;5626;-68
2023/10/30 05:20:08;;;;;;;;;;;;;;;16.99;46.38;95633.25;4217852;28;5652;-68
2023/10/30 05:22:12;;;;;;;;;;;;;;;16.99;46.44;95632.44;4217933;28;5659;-68
2023/10/30 05:24:14;;;;;;;;;;;;;;;17.00;46.34;95623.38;4218002;28;5739;-68
2023/10/30 05:26:19;;;;;;;;;;;;;;;16.99;46.35;95622.59;4217877;28;5730;-68
2023/10/30 05:28:22;;;;;;;;;;;;;;;17.02;46.58;95629.25;4218085;28;5667;-68
2023/10/30 05:30:28;;;;;;;;;;;;;;;17.03;46.55;95625.53;4218014;28;6371;-67
2023/10/30 05:32:31;;;;;;;;;;;;;;;17.03;46.35;95631.66;4217657;28;5659;-67
2023/10/30 05:34:33;;;;;;;;;;;;;;;17.04;46.43;95621.78;4216418;28;5734;-68
2023/10/30 05:36:36;;;;;;;;;;;;;;;17.02;46.46;95621.25;4217809;28;5735;-67
2023/10/30 05:38:39;;;;;;;;;;;;;;;17.01;46.40;95627.66;4217480;28;6139;-68
2023/10/30 05:40:43;;;;;;;;;;;;;;;17.02;46.50;95627.41;4217564;28;5637;-68
2023/10/30 05:42:47;;;;;;;;;;;;;;;17.03;46.53;95633.53;4217483;28;5671;-68
2023/10/30 05:44:51;;;;;;;;;;;;;;;17.03;46.40;95628.19;4217427;28;5744;-67
2023/10/30 05:46:53;;;;;;;;;;;;;;;17.03;46.60;95628.19;4217608;28;5630;-68
2023/10/30 05:48:56;;;;;;;;;;;;;;;17.02;46.40;95622.06;4217087;28;5664;-67
2023/10/30 05:50:58;;;;;;;;;;;;;;;17.01;46.45;95622.31;4217921;28;6511;-67
2023/10/30 05:53:01;;;;;;;;;;;;;;;17.00;46.61;95628.72;4215183;28;5910;-68
2023/10/30 05:55:05;;;;;;;;;;;;;;;16.99;46.67;95624.41;4209753;28;5718;-68
2023/10/30 05:57:09;;;;;;;;;;;;;;;16.97;46.73;95626.56;4217643;28;6524;-68
2023/10/30 05:59:14;;;;;;;;;;;;;;;16.95;46.71;95621.47;4215217;28;5757;-68
2023/10/30 06:01:17;;;;;;;;;;;;;;;16.95;46.78;95631.34;4205698;28;5659;-68
2023/10/30 06:03:19;;;;;;;;;;;;;;;16.94;46.82;95627.88;4207357;28;5689;-68
2023/10/30 06:05:22;;;;;;;;;;;;;;;16.93;46.84;95628.94;4212429;28;5708;-67
2023/10/30 06:18:28;;;;;;;;;;;;;;;16.94;47.65;95614.53;4212022;27;10437;-70
2023/10/30 06:20:31;;;;;;;;;;;;;;;16.97;47.64;95613.22;4213502;28;5699;-67
2023/10/30 06:22:34;;;;;;;;;;;;;;;16.97;47.56;95618.53;4211709;28;5815;-66
2023/10/30 06:24:37;;;;;;;;;;;;;;;17.01;47.56;95616.97;4218800;28;5834;-66
2023/10/30 06:26:41;;;;;;;;;;;;;;;17.01;47.57;95619.66;4220075;28;5702;-65
2023/10/30 06:28:44;;;;;;;;;;;;;;;17.00;47.50;95615.38;4213240;28;5710;-67
2023/10/30 06:30:47;;;;;;;;;;;;;;;17.01;47.41;95611.63;4211724;28;5708;-66
2023/10/30 06:32:50;;;;;;;;;;;;;;;17.01;47.44;95611.63;4212387;28;5840;-66
2023/10/30 06:34:54;;;;;;;;;;;;;;;17.01;47.19;95615.13;4200942;28;5845;-66
2023/10/30 06:36:57;;;;;;;;;;;;;;;17.01;47.40;95623.13;4202894;28;5766;-69
2023/10/30 06:39:01;;;;;;;;;;;;;;;17.02;47.32;95621.25;4212146;28;5707;-68
2023/10/30 06:41:05;;;;;;;;;;;;;;;17.01;47.45;95619.66;4212842;28;6488;-68
2023/10/30 06:43:07;;;;;;;;;;;;;;;17.03;47.44;95612.19;4213261;28;5831;-68
2023/10/30 06:45:10;;;;;;;;;;;;;;;17.04;47.26;95608.44;4209356;28;5854;-68
2023/10/30 06:47:13;;;;;;;;;;;;;;;17.04;47.37;95605.78;4212235;28;5816;-69
2023/10/30 06:49:16;;;;;;;;;;;;;;;17.05;47.39;95608.16;4212109;28;5699;-69
2023/10/30 06:51:20;;;;;;;;;;;;;;;17.06;47.37;95619.66;4210866;28;6044;-69
2023/10/30 06:53:24;;;;;;;;;;;;;;;17.08;47.42;95620.19;4213173;28;5873;-77
2023/10/30 06:55:27;;;;;;;;;;;;;;;17.10;47.30;95615.38;4206396;28;5809;-68
2023/10/30 06:57:30;;;;;;;;;;;;;;;17.12;47.45;95623.97;4200276;28;5708;-67
2023/10/30 06:59:33;;;;;;;;;;;;;;;17.11;47.37;95617.00;4213706;28;5691;-68
2023/10/30 07:01:39;;;;;;;;;;;;;;;17.12;47.66;95613.28;4212175;28;5898;-68
2023/10/30 07:03:42;;;;;;;;;;;;;;;17.13;47.66;95618.34;4208762;28;5843;-68
2023/10/30 07:05:45;;;;;;;;;;;;;;;17.14;47.72;95614.63;4211004;28;5861;-68
2023/10/30 07:07:49;;;;;;;;;;;;;;;17.14;47.70;95614.63;4212478;28;5790;-67
2023/10/30 07:09:52;;;;;;;;;;;;;;;17.15;47.96;95604.72;4213456;28;5782;-67
2023/10/30 07:11:55;;;;;;;;;;;;;;;17.14;48.02;95611.13;4210854;28;5853;-67
2023/10/30 07:13:58;;;;;;;;;;;;;;;17.14;48.13;95611.13;4210035;28;5702;-67
2023/10/30 07:16:01;;;;;;;;;;;;;;;17.16;48.19;95609.81;4213064;28;5702;-67
2023/10/30 07:18:04;;;;;;;;;;;;;;;17.15;48.28;95607.41;4209570;28;5699;-67
2023/10/30 07:20:08;;;;;;;;;;;;;;;17.16;48.46;95595.66;4199882;28;5782;-67
2023/10/30 07:22:10;;;;;;;;;;;;;;;17.17;48.63;95597.25;4201898;28;5802;-67
2023/10/30 07:24:15;;;;;;;;;;;;;;;17.18;48.40;95594.31;4201607;28;6795;-67
2023/10/30 07:26:18;;;;;;;;;;;;;;;17.20;48.49;95598.59;4202140;28;5704;-68
2023/10/30 07:28:21;;;;;;;;;;;;;;;17.20;48.57;95606.59;4202223;28;5699;-68
2023/10/30 07:30:25;;;;;;;;;;;;;;;17.22;48.74;95613.31;4202123;28;5747;-68
2023/10/30 07:32:28;;;;;;;;;;;;;;;17.22;48.69;95607.16;4199658;28;5867;-68
2023/10/30 07:34:31;;;;;;;;;;;;;;;17.23;48.80;95604.22;4199523;28;5866;-68
2023/10/30 07:36:34;;;;;;;;;;;;;;;17.22;48.88;95594.63;4195131;28;5720;-68
2023/10/30 07:38:37;;;;;;;;;;;;;;;17.23;49.02;95603.44;4193665;28;6405;-66
2023/10/30 07:40:41;;;;;;;;;;;;;;;17.22;49.00;95599.94;4197196;28;5686;-67
2023/10/30 07:42:44;;;;;;;;;;;;;;;17.22;48.90;95594.63;4199531;28;5787;-67
2023/10/30 07:44:47;;;;;;;;;;;;;;;17.23;49.08;95598.09;4193750;28;5849;-65
2023/10/30 07:46:50;;;;;;;;;;;;;;;17.24;49.01;95592.47;4191353;28;5702;-69
2023/10/30 07:48:54;;;;;;;;;;;;;;;17.25;48.90;95587.94;4198022;28;5758;-71
2023/10/30 07:51:01;;;;;;;;;;;;;;;17.25;49.01;95586.06;4191542;28;5955;-67
2023/10/30 07:53:04;;;;;;;;;;;;;;;17.27;48.80;95591.13;4186358;28;5708;-69
2023/10/30 07:55:08;;;;;;;;;;;;;;;17.27;48.80;95585.78;4194206;28;6639;-70
2023/10/30 07:57:12;;;;;;;;;;;;;;;17.29;48.84;95578.31;4198532;28;5691;-69
2023/10/30 07:59:14;;;;;;;;;;;;;;;17.30;48.86;95569.22;4193159;28;5816;-67
2023/10/30 08:01:20;;;;;;;;;;;;;;;17.31;48.69;95568.16;4198222;28;5699;-65
2023/10/30 08:03:23;;;;;;;;;;;;;;;17.32;48.94;95559.88;4199652;28;5830;-66
2023/10/30 08:05:27;;;;;;;;;;;;;;;17.33;48.88;95558.84;4191972;28;5771;-66
2023/10/30 08:07:30;;;;;;;;;;;;;;;17.33;48.75;95548.16;4191343;28;5771;-66
2023/10/30 08:09:33;;;;;;;;;;;;;;;17.35;49.00;95550.56;4198414;28;5749;-66
2023/10/30 08:11:36;;;;;;;;;;;;;;;17.36;49.00;95563.66;4198013;28;5683;-65
2023/10/30 08:13:40;;;;;;;;;;;;;;;17.34;48.93;95556.97;4200980;28;5711;-65
2023/10/30 08:15:43;;;;;;;;;;;;;;;17.37;49.03;95549.22;4201066;28;5838;-66
2023/10/30 08:17:47;;;;;;;;;;;;;;;17.39;49.05;95560.44;4201113;28;5691;-66
2023/10/30 08:19:49;;;;;;;;;;;;;;;17.41;49.07;95560.97;4201554;28;5827;-66
2023/10/30 08:21:52;;;;;;;;;;;;;;;17.45;48.92;95546.03;4197716;28;5837;-66
2023/10/30 08:23:55;;;;;;;;;;;;;;;17.48;49.02;95552.69;4196324;28;5815;-66
2023/10/30 08:25:58;;;;;;;;;;;;;;;17.48;49.00;95543.88;4201461;28;5686;-65
2023/10/30 08:28:02;;;;;;;;;;;;;;;17.50;49.09;95557.78;4199375;28;5688;-65
2023/10/30 08:30:08;;;;;;;;;;;;;;;17.50;49.13;95553.22;4199954;28;5706;-65
2023/10/30 08:32:11;;;;;;;;;;;;;;;17.52;48.94;95548.41;4200360;28;5803;-66
2023/10/30 08:34:14;;;;;;;;;;;;;;;17.53;49.06;95558.03;4201220;28;5701;-65
2023/10/30 08:36:21;;;;;;;;;;;;;;;17.55;49.21;95555.09;4198834;28;5691;-64
2023/10/30 08:38:24;;;;;;;;;;;;;;;17.56;49.28;95562.06;4198223;28;6564;-65
2023/10/30 08:40:27;;;;;;;;;;;;;;;17.55;49.37;95549.75;4201000;28;6400;-65
2023/10/30 08:42:30;;;;;;;;;;;;;;;17.55;49.33;95539.06;4200981;28;5782;-65
2023/10/30 08:44:32;;;;;;;;;;;;;;;17.56;49.46;95546.03;4199662;28;5690;-66
2023/10/30 08:46:37;;;;;;;;;;;;;;;17.54;49.41;95545.47;4200944;28;7033;-66
2023/10/30 08:48:40;;;;;;;;;;;;;;;17.55;49.55;95550.56;4208026;28;5744;-65
2023/10/30 08:50:43;;;;;;;;;;;;;;;17.55;49.53;95553.22;4202384;28;5915;-66
2023/10/30 08:52:46;;;;;;;;;;;;;;;17.57;49.70;95555.66;4200816;28;5699;-65
2023/10/30 08:54:48;;;;;;;;;;;;;;;17.56;49.70;95546.84;4186727;28;5821;-66
2023/10/30 08:56:51;;;;;;;;;;;;;;;17.56;49.77;95546.84;4196118;28;6121;-66
2023/10/30 08:59:06;;;;;;;;;;;;;;;17.57;49.78;95542.28;4192998;28;5817;-66
2023/10/30 09:01:09;;;;;;;;;;;;;;;17.58;49.86;95547.38;4200055;28;5706;-65
2023/10/30 09:03:15;;;;;;;;;;;;;;;17.59;49.95;95546.28;4197902;28;5902;-66
2023/10/30 09:05:18;;;;;;;;;;;;;;;17.60;49.88;95552.44;4200424;28;7746;-65
2023/10/30 09:07:21;;;;;;;;;;;;;;;17.62;50.23;95564.47;4200780;28;5716;-66
2023/10/30 09:09:25;;;;;;;;;;;;;;;17.63;50.07;95552.69;4200635;28;5811;-65
2023/10/30 09:11:28;;;;;;;;;;;;;;;17.65;50.44;95555.09;4201081;28;5774;-65
2023/10/30 09:13:31;;;;;;;;;;;;;;;17.66;50.25;95556.69;4199584;28;5793;-66
2023/10/30 09:15:34;;;;;;;;;;;;;;;17.66;50.38;95554.81;4199568;28;5821;-66
2023/10/30 09:17:37;;;;;;;;;;;;;;;17.67;50.56;95561.00;4200201;28;5687;-66
2023/10/30 09:19:41;;;;;;;;;;;;;;;17.71;50.60;95570.09;4198136;28;5925;-66
2023/10/30 09:21:45;;;;;;;;;;;;;;;17.72;50.62;95561.81;4193151;28;5880;-64
2023/10/30 09:23:48;;;;;;;;;;;;;;;17.74;50.64;95567.69;4193387;28;5905;-64
2023/10/30 09:25:51;;;;;;;;;;;;;;;17.77;50.59;95569.03;4200342;28;5815;-65
2023/10/30 09:27:55;;;;;;;;;;;;;;;17.80;50.60;95578.41;4199625;28;5785;-65
2023/10/30 09:29:58;;;;;;;;;;;;;;;17.82;50.83;95577.06;4200537;28;5699;-65
2023/10/30 09:32:03;;;;;;;;;;;;;;;17.84;50.65;95569.56;4200574;28;5695;-64
2023/10/30 09:34:06;;;;;;;;;;;;;;;17.83;50.73;95570.63;4199515;28;5798;-65
2023/10/30 09:36:10;;;;;;;;;;;;;;;17.84;50.88;95568.75;4198777;28;6405;-65
2023/10/30 09:38:13;;;;;;;;;;;;;;;17.85;50.99;95567.69;4199145;28;6518;-65
2023/10/30 09:40:17;;;;;;;;;;;;;;;17.87;51.01;95581.59;4200456;28;6421;-65
2023/10/30 09:42:20;;;;;;;;;;;;;;;17.86;51.42;95594.16;4198761;28;5828;-65
2023/10/30 09:44:24;;;;;;;;;;;;;;;17.85;51.29;95608.59;4199564;28;5180;-65
2023/10/30 09:46:29;;;;;;;;;;;;;;;17.84;51.32;95607.00;4199703;28;7781;-65
2023/10/30 09:48:33;;;;;;;;;;;;;;;17.83;51.38;95612.59;4199350;28;5690;-65
2023/10/30 09:50:40;;;;;;;;;;;;;;;17.82;51.49;95585.06;4198399;28;5750;-65
2023/10/30 09:52:45;;;;;;;;;;;;;;;17.80;51.92;95578.41;4193850;28;6393;-65
2023/10/30 09:54:49;;;;;;;;;;;;;;;17.77;51.85;95600.28;4200434;28;5741;-66
2023/10/30 09:56:54;;;;;;;;;;;;;;;17.78;52.04;95613.41;4199620;28;5090;-66
2023/10/30 09:58:57;;;;;;;;;;;;;;;17.80;52.06;95624.66;4199435;28;5827;-66
2023/10/30 10:01:00;;;;;;;;;;;;;;;17.82;52.15;95625.16;4194548;28;5808;-66
2023/10/30 10:03:05;;;;;;;;;;;;;;;17.86;52.10;95623.56;4196710;28;5721;-66
2023/10/30 10:05:09;;;;;;;;;;;;;;;17.88;52.24;95645.47;4198924;28;5684;-65
2023/10/30 10:07:13;;;;;;;;;;;;;;;17.89;52.32;95647.09;4199651;28;5690;-65
2023/10/30 10:09:18;;;;;;;;;;;;;;;17.89;52.38;95623.00;4199754;28;5781;-66
2023/10/30 10:11:22;;;;;;;;;;;;;;;17.88;52.62;95585.84;4199929;28;5704;-65
2023/10/30 10:13:27;;;;;;;;;;;;;;;17.83;53.06;95605.38;4197698;28;6571;-65
2023/10/30 10:15:31;;;;;;;;;;;;;;;17.81;53.12;95559.41;4195791;28;5807;-65
2023/10/30 10:17:42;;;;;;;;;;;;;;;17.77;53.29;95566.34;4191482;28;5910;-65
2023/10/30 10:19:46;;;;;;;;;;;;;;;17.74;53.48;95597.09;4198117;28;5913;-66
2023/10/30 10:21:50;;;;;;;;;;;;;;;17.71;54.02;95642.28;4187013;28;5868;-66
2023/10/30 10:23:53;;;;;;;;;;;;;;;17.67;54.50;95614.44;4191701;28;5854;-65
2023/10/30 10:25:59;;;;;;;;;;;;;;;17.63;54.21;95610.69;4199727;28;6396;-66
2023/10/30 10:28:02;;;;;;;;;;;;;;;17.62;54.24;95603.75;4189511;28;5705;-65
2023/10/30 10:30:07;;;;;;;;;;;;;;;17.60;54.40;95605.88;4194557;28;5905;-65
2023/10/30 10:32:12;;;;;;;;;;;;;;;17.59;54.44;95612.31;4196922;28;5695;-65
2023/10/30 10:34:15;;;;;;;;;;;;;;;17.61;54.60;95602.13;4199850;28;5805;-66
2023/10/30 10:36:19;;;;;;;;;;;;;;;17.62;54.72;95587.72;4198334;28;5806;-66
2023/10/30 10:38:21;;;;;;;;;;;;;;;17.62;54.57;95585.03;4197974;28;5703;-66
2023/10/30 10:40:25;;;;;;;;;;;;;;;17.64;54.74;95601.59;4199249;28;5683;-64
2023/10/30 10:42:30;;;;;;;;;;;;;;;17.66;54.75;95602.13;4193457;28;5719;-66
2023/10/30 10:44:34;;;;;;;;;;;;;;;17.66;55.02;95589.56;4199861;28;5679;-65
2023/10/30 10:46:37;;;;;;;;;;;;;;;17.65;54.83;95571.94;4199464;28;5989;-65
2023/10/30 10:48:41;;;;;;;;;;;;;;;17.66;54.99;95557.50;4194021;28;5823;-65
2023/10/30 10:50:45;;;;;;;;;;;;;;;17.67;55.19;95547.63;4185478;28;5696;-65
2023/10/30 10:52:51;;;;;;;;;;;;;;;17.68;55.23;95544.69;4195696;28;5818;-65
2023/10/30 10:54:57;;;;;;;;;;;;;;;17.68;55.52;95550.03;4202151;28;5708;-65
2023/10/30 10:57:01;;;;;;;;;;;;;;;17.66;55.51;95544.13;4202244;28;5727;-66
2023/10/30 10:59:12;;;;;;;;;;;;;;;17.67;55.74;95534.28;4197371;28;5686;-66
2023/10/30 11:01:17;;;;;;;;;;;;;;;17.64;56.14;95537.47;4186802;28;5839;-66
2023/10/30 11:03:21;;;;;;;;;;;;;;;17.58;56.10;95530.53;4200417;28;5687;-66